sensor_id;sensor_type;location;lat;lon;timestamp;pressure;altitude;pressure_sealevel;temperature;humidity
75013;BME280;63567;49.956;20.130;2024-03-02T00:00:10;96424.19;;;9.55;85.53
75013;BME280;63567;49.956;20.130;2024-03-02T00:02:42;96426.81;;;9.55;85.84
75013;BME280;63567;49.956;20.130;2024-03-02T00:05:07;96424.81;;;9.57;85.27
75013;BME280;63567;49.956;20.130;2024-03-02T00:07:35;96424.81;;;9.57;85.67
75013;BME280;63567;49.956;20.130;2024-03-02T00:10:06;96414.28;;;9.57;86.08
75013;BME280;63567;49.956;20.130;2024-03-02T00:12:32;96419.31;;;9.58;85.88
75013;BME280;63567;49.956;20.130;2024-03-02T00:14:59;96423.59;;;9.59;85.70
75013;BME280;63567;49.956;20.130;2024-03-02T00:17:27;96420.78;;;9.61;85.66
75013;BME280;63567;49.956;20.130;2024-03-02T00:19:54;96418.13;;;9.61;85.60
75013;BME280;63567;49.956;20.130;2024-03-02T00:22:19;96426.84;;;9.61;85.51
75013;BME280;63567;49.956;20.130;2024-03-02T00:24:45;96425.81;;;9.62;85.86
75013;BME280;63567;49.956;20.130;2024-03-02T00:27:12;96431.69;;;9.64;85.40
75013;BME280;63567;49.956;20.130;2024-03-02T00:29:40;96426.44;;;9.64;85.20
75013;BME280;63567;49.956;20.130;2024-03-02T00:32:12;96422.00;;;9.65;85.29
75013;BME280;63567;49.956;20.130;2024-03-02T00:34:38;96420.97;;;9.66;85.07
75013;BME280;63567;49.956;20.130;2024-03-02T00:37:04;96420.78;;;9.68;85.59
75013;BME280;63567;49.956;20.130;2024-03-02T00:39:29;96425.22;;;9.67;85.29
75013;BME280;63567;49.956;20.130;2024-03-02T00:41:54;96414.69;;;9.67;85.23
75013;BME280;63567;49.956;20.130;2024-03-02T00:44:21;96415.91;;;9.64;84.63
75013;BME280;63567;49.956;20.130;2024-03-02T00:46:49;96415.72;;;9.66;85.11
75013;BME280;63567;49.956;20.130;2024-03-02T00:49:22;96410.03;;;9.62;85.00
75013;BME280;63567;49.956;20.130;2024-03-02T00:51:49;96415.09;;;9.64;84.81
75013;BME280;63567;49.956;20.130;2024-03-02T00:54:19;96409.03;;;9.63;84.52
75013;BME280;63567;49.956;20.130;2024-03-02T00:56:44;96403.78;;;9.63;84.70
75013;BME280;63567;49.956;20.130;2024-03-02T00:59:10;96403.16;;;9.61;84.57
75013;BME280;63567;49.956;20.130;2024-03-02T01:01:35;96411.06;;;9.61;84.57
75013;BME280;63567;49.956;20.130;2024-03-02T01:04:00;96407.63;;;9.61;84.18
75013;BME280;63567;49.956;20.130;2024-03-02T01:06:26;96402.75;;;9.58;83.98
75013;BME280;63567;49.956;20.130;2024-03-02T01:08:51;96404.75;;;9.56;84.20
75013;BME280;63567;49.956;20.130;2024-03-02T01:11:17;96398.06;;;9.53;84.28
75013;BME280;63567;49.956;20.130;2024-03-02T01:13:44;96396.47;;;9.52;83.75
75013;BME280;63567;49.956;20.130;2024-03-02T01:16:09;96397.66;;;9.50;83.70
75013;BME280;63567;49.956;20.130;2024-03-02T01:18:34;96398.06;;;9.46;84.11
75013;BME280;63567;49.956;20.130;2024-03-02T01:21:00;96393.81;;;9.45;83.96
75013;BME280;63567;49.956;20.130;2024-03-02T01:23:25;96393.19;;;9.43;83.63
75013;BME280;63567;49.956;20.130;2024-03-02T01:25:51;96392.59;;;9.41;83.69
75013;BME280;63567;49.956;20.130;2024-03-02T01:28:17;96389.53;;;9.38;83.84
75013;BME280;63567;49.956;20.130;2024-03-02T01:30:42;96383.03;;;9.34;83.92
75013;BME280;63567;49.956;20.130;2024-03-02T01:33:08;96389.50;;;9.31;83.80
75013;BME280;63567;49.956;20.130;2024-03-02T01:35:33;96392.31;;;9.30;83.69
75013;BME280;63567;49.956;20.130;2024-03-02T01:37:59;96387.66;;;9.25;83.92
75013;BME280;63567;49.956;20.130;2024-03-02T01:40:25;96385.84;;;9.25;83.80
75013;BME280;63567;49.956;20.130;2024-03-02T01:42:52;96386.25;;;9.22;84.20
75013;BME280;63567;49.956;20.130;2024-03-02T01:45:18;96383.00;;;9.20;84.17
75013;BME280;63567;49.956;20.130;2024-03-02T01:47:43;96372.66;;;9.19;84.09
75013;BME280;63567;49.956;20.130;2024-03-02T01:50:11;96366.78;;;9.17;84.10
75013;BME280;63567;49.956;20.130;2024-03-02T01:52:36;96367.19;;;9.14;84.75
75013;BME280;63567;49.956;20.130;2024-03-02T01:55:02;96369.22;;;9.12;84.50
75013;BME280;63567;49.956;20.130;2024-03-02T01:57:29;96365.16;;;9.09;84.78
75013;BME280;63567;49.956;20.130;2024-03-02T01:59:54;96365.53;;;9.06;85.46
75013;BME280;63567;49.956;20.130;2024-03-02T02:02:19;96372.00;;;9.03;85.40
75013;BME280;63567;49.956;20.130;2024-03-02T02:04:45;96370.38;;;9.02;85.55
75013;BME280;63567;49.956;20.130;2024-03-02T02:07:10;96368.34;;;8.98;86.28
75013;BME280;63567;49.956;20.130;2024-03-02T02:09:36;96368.75;;;9.01;85.69
75013;BME280;63567;49.956;20.130;2024-03-02T02:12:01;96370.56;;;9.01;85.90
75013;BME280;63567;49.956;20.130;2024-03-02T02:14:27;96371.56;;;9.00;86.17
75013;BME280;63567;49.956;20.130;2024-03-02T02:16:53;96372.19;;;9.02;86.25
75013;BME280;63567;49.956;20.130;2024-03-02T02:19:19;96373.00;;;9.02;86.05
75013;BME280;63567;49.956;20.130;2024-03-02T02:21:44;96367.94;;;9.01;85.98
75013;BME280;63567;49.956;20.130;2024-03-02T02:24:09;96374.81;;;9.02;86.20
75013;BME280;63567;49.956;20.130;2024-03-02T02:26:35;96368.75;;;9.01;86.28
75013;BME280;63567;49.956;20.130;2024-03-02T02:29:00;96370.56;;;9.01;85.82
75013;BME280;63567;49.956;20.130;2024-03-02T02:31:25;96355.78;;;9.00;86.10
75013;BME280;63567;49.956;20.130;2024-03-02T02:33:51;96359.44;;;8.99;86.25
75013;BME280;63567;49.956;20.130;2024-03-02T02:36:16;96356.00;;;8.98;85.82
75013;BME280;63567;49.956;20.130;2024-03-02T02:38:45;96348.72;;;8.94;86.15
75013;BME280;63567;49.956;20.130;2024-03-02T02:41:11;96349.13;;;8.97;86.04
75013;BME280;63567;49.956;20.130;2024-03-02T02:43:37;96350.94;;;8.97;85.58
75013;BME280;63567;49.956;20.130;2024-03-02T02:46:02;96343.88;;;8.97;85.41
75013;BME280;63567;49.956;20.130;2024-03-02T02:48:27;96342.44;;;8.95;85.47
75013;BME280;63567;49.956;20.130;2024-03-02T02:50:53;96335.59;;;8.94;85.06
75013;BME280;63567;49.956;20.130;2024-03-02T02:53:18;96345.47;;;8.92;84.93
75013;BME280;63567;49.956;20.130;2024-03-02T02:55:43;96336.19;;;8.89;84.63
75013;BME280;63567;49.956;20.130;2024-03-02T02:58:09;96346.88;;;8.88;84.86
75013;BME280;63567;49.956;20.130;2024-03-02T03:00:35;96347.84;;;8.87;84.41
75013;BME280;63567;49.956;20.130;2024-03-02T03:03:01;96351.50;;;8.86;84.84
75013;BME280;63567;49.956;20.130;2024-03-02T03:05:27;96349.25;;;8.82;84.55
75013;BME280;63567;49.956;20.130;2024-03-02T03:07:52;96352.09;;;8.81;84.83
75013;BME280;63567;49.956;20.130;2024-03-02T03:10:18;96363.78;;;8.78;84.51
75013;BME280;63567;49.956;20.130;2024-03-02T03:12:43;96357.09;;;8.76;84.96
75013;BME280;63567;49.956;20.130;2024-03-02T03:15:09;96355.66;;;8.73;84.63
75013;BME280;63567;49.956;20.130;2024-03-02T03:17:35;96362.94;;;8.71;84.50
75013;BME280;63567;49.956;20.130;2024-03-02T03:20:02;96369.38;;;8.69;84.68
75013;BME280;63567;49.956;20.130;2024-03-02T03:22:29;96362.69;;;8.66;84.83
75013;BME280;63567;49.956;20.130;2024-03-02T03:24:54;96356.84;;;8.64;84.97
75013;BME280;63567;49.956;20.130;2024-03-02T03:27:19;96353.59;;;8.62;85.05
75013;BME280;63567;49.956;20.130;2024-03-02T03:29:45;96348.72;;;8.59;85.13
75013;BME280;63567;49.956;20.130;2024-03-02T03:32:10;96346.28;;;8.57;84.93
75013;BME280;63567;49.956;20.130;2024-03-02T03:34:35;96337.97;;;8.54;84.51
75013;BME280;63567;49.956;20.130;2024-03-02T03:37:01;96342.59;;;8.52;84.88
75013;BME280;63567;49.956;20.130;2024-03-02T03:39:26;96337.75;;;8.49;84.76
75013;BME280;63567;49.956;20.130;2024-03-02T03:41:52;96340.56;;;8.47;84.65
75013;BME280;63567;49.956;20.130;2024-03-02T03:44:17;96347.00;;;8.45;84.83
75013;BME280;63567;49.956;20.130;2024-03-02T03:46:42;96347.19;;;8.43;84.99
75013;BME280;63567;49.956;20.130;2024-03-02T03:49:07;96350.19;;;8.40;85.47
75013;BME280;63567;49.956;20.130;2024-03-02T03:51:33;96350.38;;;8.38;84.85
75013;BME280;63567;49.956;20.130;2024-03-02T03:53:58;96338.44;;;8.36;84.91
75013;BME280;63567;49.956;20.130;2024-03-02T03:56:24;96334.41;;;8.33;85.21
75013;BME280;63567;49.956;20.130;2024-03-02T03:58:49;96337.19;;;8.32;85.42
75013;BME280;63567;49.956;20.130;2024-03-02T04:01:14;96338.41;;;8.29;85.46
75013;BME280;63567;49.956;20.130;2024-03-02T04:03:39;96328.28;;;8.26;85.17
75013;BME280;63567;49.956;20.130;2024-03-02T04:06:05;96345.03;;;8.25;84.86
75013;BME280;63567;49.956;20.130;2024-03-02T04:08:30;96345.41;;;8.22;85.22
75013;BME280;63567;49.956;20.130;2024-03-02T04:10:56;96343.16;;;8.19;85.00
75013;BME280;63567;49.956;20.130;2024-03-02T04:13:21;96345.16;;;8.17;85.13
75013;BME280;63567;49.956;20.130;2024-03-02T04:15:47;96344.53;;;8.15;84.98
75013;BME280;63567;49.956;20.130;2024-03-02T04:18:12;96345.72;;;8.12;85.24
75013;BME280;63567;49.956;20.130;2024-03-02T04:20:37;96350.34;;;8.10;85.49
75013;BME280;63567;49.956;20.130;2024-03-02T04:23:03;96353.16;;;8.09;85.38
75013;BME280;63567;49.956;20.130;2024-03-02T04:25:28;96356.97;;;8.06;85.35
75013;BME280;63567;49.956;20.130;2024-03-02T04:27:53;96357.19;;;8.05;85.20
75013;BME280;63567;49.956;20.130;2024-03-02T04:30:18;96342.81;;;8.00;85.15
75013;BME280;63567;49.956;20.130;2024-03-02T04:32:44;96341.19;;;7.99;85.26
75013;BME280;63567;49.956;20.130;2024-03-02T04:35:11;96340.78;;;7.96;85.71
75013;BME280;63567;49.956;20.130;2024-03-02T04:37:37;96354.06;;;7.94;85.40
75013;BME280;63567;49.956;20.130;2024-03-02T04:40:03;96343.94;;;7.91;85.84
75013;BME280;63567;49.956;20.130;2024-03-02T04:42:28;96341.53;;;7.90;85.79
75013;BME280;63567;49.956;20.130;2024-03-02T04:44:54;96343.53;;;7.88;85.50
75013;BME280;63567;49.956;20.130;2024-03-02T04:47:19;96325.09;;;7.81;85.63
75013;BME280;63567;49.956;20.130;2024-03-02T04:49:44;96332.97;;;7.81;85.56
75013;BME280;63567;49.956;20.130;2024-03-02T04:52:10;96336.56;;;7.80;85.75
75013;BME280;63567;49.956;20.130;2024-03-02T04:54:35;96344.84;;;7.77;85.69
75013;BME280;63567;49.956;20.130;2024-03-02T04:57:20;96342.56;;;7.74;85.64
75013;BME280;63567;49.956;20.130;2024-03-02T04:59:45;96346.38;;;7.71;85.75
75013;BME280;63567;49.956;20.130;2024-03-02T05:02:11;96345.13;;;7.67;85.83
75013;BME280;63567;49.956;20.130;2024-03-02T05:04:39;96346.75;;;7.68;85.75
75013;BME280;63567;49.956;20.130;2024-03-02T05:07:04;96352.38;;;7.65;85.91
75013;BME280;63567;49.956;20.130;2024-03-02T05:09:29;96349.94;;;7.64;86.37
75013;BME280;63567;49.956;20.130;2024-03-02T05:11:55;96356.34;;;7.61;86.43
75013;BME280;63567;49.956;20.130;2024-03-02T05:14:39;96354.91;;;7.58;86.29
75013;BME280;63567;49.956;20.130;2024-03-02T05:17:04;96362.38;;;7.55;86.37
75013;BME280;63567;49.956;20.130;2024-03-02T05:19:29;96354.84;;;7.52;86.76
75013;BME280;63567;49.956;20.130;2024-03-02T05:21:55;96360.91;;;7.52;86.85
75013;BME280;63567;49.956;20.130;2024-03-02T05:24:20;96364.34;;;7.53;87.42
75013;BME280;63567;49.956;20.130;2024-03-02T05:26:45;96364.97;;;7.55;87.60
75013;BME280;63567;49.956;20.130;2024-03-02T05:29:11;96366.41;;;7.57;87.91
75013;BME280;63567;49.956;20.130;2024-03-02T05:31:37;96364.78;;;7.56;88.78
75013;BME280;63567;49.956;20.130;2024-03-02T05:34:02;96369.28;;;7.63;88.51
75013;BME280;63567;49.956;20.130;2024-03-02T05:36:27;96371.56;;;7.66;88.97
75013;BME280;63567;49.956;20.130;2024-03-02T05:38:53;96376.22;;;7.70;88.87
75013;BME280;63567;49.956;20.130;2024-03-02T05:41:18;96375.66;;;7.75;89.17
75013;BME280;63567;49.956;20.130;2024-03-02T05:43:43;96374.31;;;7.79;89.56
75013;BME280;63567;49.956;20.130;2024-03-02T05:46:08;96369.47;;;7.82;89.86
75013;BME280;63567;49.956;20.130;2024-03-02T05:48:34;96370.53;;;7.88;89.74
75013;BME280;63567;49.956;20.130;2024-03-02T05:50:59;96371.81;;;7.92;89.62
75013;BME280;63567;49.956;20.130;2024-03-02T05:53:24;96376.66;;;7.95;89.46
75013;BME280;63567;49.956;20.130;2024-03-02T05:55:50;96377.28;;;7.97;89.02
75013;BME280;63567;49.956;20.130;2024-03-02T05:58:20;96371.84;;;7.99;88.69
75013;BME280;63567;49.956;20.130;2024-03-02T06:01:11;96380.53;;;7.99;88.45
75013;BME280;63567;49.956;20.130;2024-03-02T06:03:36;96383.78;;;8.01;88.69
75013;BME280;63567;49.956;20.130;2024-03-02T06:06:02;96385.41;;;8.02;88.16
75013;BME280;63567;49.956;20.130;2024-03-02T06:08:27;96385.59;;;8.01;87.87
75013;BME280;63567;49.956;20.130;2024-03-02T06:10:52;96391.66;;;8.01;87.83
75013;BME280;63567;49.956;20.130;2024-03-02T06:13:17;96394.91;;;8.03;88.00
75013;BME280;63567;49.956;20.130;2024-03-02T06:15:43;96389.47;;;8.05;87.83
75013;BME280;63567;49.956;20.130;2024-03-02T06:18:08;96385.03;;;8.06;88.34
75013;BME280;63567;49.956;20.130;2024-03-02T06:20:33;96392.50;;;8.09;88.22
75013;BME280;63567;49.956;20.130;2024-03-02T06:22:59;96391.34;;;8.11;87.57
75013;BME280;63567;49.956;20.130;2024-03-02T06:25:24;96389.34;;;8.13;87.50
75013;BME280;63567;49.956;20.130;2024-03-02T06:27:49;96395.00;;;8.17;87.46
75013;BME280;63567;49.956;20.130;2024-03-02T06:30:15;96390.38;;;8.19;88.12
75013;BME280;63567;49.956;20.130;2024-03-02T06:32:40;96386.97;;;8.18;87.95
75013;BME280;63567;49.956;20.130;2024-03-02T06:35:05;96392.25;;;8.25;88.12
75013;BME280;63567;49.956;20.130;2024-03-02T06:37:33;96400.56;;;8.29;87.82
75013;BME280;63567;49.956;20.130;2024-03-02T06:39:58;96398.56;;;8.31;88.04
75013;BME280;63567;49.956;20.130;2024-03-02T06:42:24;96393.72;;;8.34;87.87
75013;BME280;63567;49.956;20.130;2024-03-02T06:44:49;96388.31;;;8.36;87.48
75013;BME280;63567;49.956;20.130;2024-03-02T06:47:15;96393.38;;;8.37;87.95
75013;BME280;63567;49.956;20.130;2024-03-02T06:49:42;96393.00;;;8.40;87.86
75013;BME280;63567;49.956;20.130;2024-03-02T06:52:07;96392.03;;;8.41;87.46
75013;BME280;63567;49.956;20.130;2024-03-02T06:54:32;96392.84;;;8.42;87.56
75013;BME280;63567;49.956;20.130;2024-03-02T06:56:57;96405.38;;;8.47;87.66
75013;BME280;63567;49.956;20.130;2024-03-02T06:59:22;96401.56;;;8.49;87.44
75013;BME280;63567;49.956;20.130;2024-03-02T07:01:49;96399.56;;;8.51;88.05
75013;BME280;63567;49.956;20.130;2024-03-02T07:04:14;96402.00;;;8.53;87.91
75013;BME280;63567;49.956;20.130;2024-03-02T07:06:40;96399.78;;;8.56;87.63
75013;BME280;63567;49.956;20.130;2024-03-02T07:09:05;96405.66;;;8.58;87.79
75013;BME280;63567;49.956;20.130;2024-03-02T07:11:30;96410.72;;;8.60;87.87
75013;BME280;63567;49.956;20.130;2024-03-02T07:13:55;96411.53;;;8.60;88.63
75013;BME280;63567;49.956;20.130;2024-03-02T07:16:21;96418.03;;;8.64;88.01
75013;BME280;63567;49.956;20.130;2024-03-02T07:19:05;96412.41;;;8.68;88.36
75013;BME280;63567;49.956;20.130;2024-03-02T07:21:31;96414.00;;;8.69;87.49
75013;BME280;63567;49.956;20.130;2024-03-02T07:23:57;96418.06;;;8.71;87.58
75013;BME280;63567;49.956;20.130;2024-03-02T07:26:23;96418.69;;;8.73;87.86
75013;BME280;63567;49.956;20.130;2024-03-02T07:28:49;96418.94;;;8.78;87.83
75013;BME280;63567;49.956;20.130;2024-03-02T07:31:14;96425.63;;;8.81;87.77
75013;BME280;63567;49.956;20.130;2024-03-02T07:33:40;96427.66;;;8.86;87.66
75013;BME280;63567;49.956;20.130;2024-03-02T07:36:05;96438.41;;;8.91;88.49
75013;BME280;63567;49.956;20.130;2024-03-02T07:38:31;96430.97;;;8.94;88.58
75013;BME280;63567;49.956;20.130;2024-03-02T07:40:59;96432.19;;;8.98;88.57
75013;BME280;63567;49.956;20.130;2024-03-02T07:43:25;96435.22;;;9.02;88.50
75013;BME280;63567;49.956;20.130;2024-03-02T07:45:50;96438.28;;;9.05;88.07
75013;BME280;63567;49.956;20.130;2024-03-02T07:48:15;96438.50;;;9.11;88.53
75013;BME280;63567;49.956;20.130;2024-03-02T07:50:41;96443.41;;;9.14;88.80
75013;BME280;63567;49.956;20.130;2024-03-02T07:53:08;96442.00;;;9.18;88.64
75013;BME280;63567;49.956;20.130;2024-03-02T07:55:33;96447.47;;;9.23;88.45
75013;BME280;63567;49.956;20.130;2024-03-02T07:57:59;96441.25;;;9.24;88.53
75013;BME280;63567;49.956;20.130;2024-03-02T08:00:25;96441.44;;;9.29;88.44
75013;BME280;63567;49.956;20.130;2024-03-02T08:02:51;96436.63;;;9.33;87.86
75013;BME280;63567;49.956;20.130;2024-03-02T08:05:17;96438.66;;;9.37;87.85
75013;BME280;63567;49.956;20.130;2024-03-02T08:07:44;96445.34;;;9.40;88.27
75013;BME280;63567;49.956;20.130;2024-03-02T08:10:10;96442.94;;;9.45;88.18
75013;BME280;63567;49.956;20.130;2024-03-02T08:12:35;96448.44;;;9.50;87.81
75013;BME280;63567;49.956;20.130;2024-03-02T08:15:00;96452.31;;;9.54;87.65
75013;BME280;63567;49.956;20.130;2024-03-02T08:17:26;96443.81;;;9.59;88.07
75013;BME280;63567;49.956;20.130;2024-03-02T08:19:51;96451.31;;;9.62;88.71
75013;BME280;63567;49.956;20.130;2024-03-02T08:22:16;96453.34;;;9.66;88.73
75013;BME280;63567;49.956;20.130;2024-03-02T08:24:42;96455.38;;;9.71;88.67
75013;BME280;63567;49.956;20.130;2024-03-02T08:27:07;96454.19;;;9.74;88.61
75013;BME280;63567;49.956;20.130;2024-03-02T08:29:34;96452.16;;;9.76;88.07
75013;BME280;63567;49.956;20.130;2024-03-02T08:31:59;96451.59;;;9.80;88.32
75013;BME280;63567;49.956;20.130;2024-03-02T08:34:24;96444.69;;;9.86;87.80
75013;BME280;63567;49.956;20.130;2024-03-02T08:36:50;96448.56;;;9.90;87.95
75013;BME280;63567;49.956;20.130;2024-03-02T08:39:15;96456.06;;;9.93;87.73
75013;BME280;63567;49.956;20.130;2024-03-02T08:41:47;96455.06;;;9.94;87.10
75013;BME280;63567;49.956;20.130;2024-03-02T08:44:13;96460.75;;;9.98;87.42
75013;BME280;63567;49.956;20.130;2024-03-02T08:46:41;96450.41;;;10.03;87.01
75013;BME280;63567;49.956;20.130;2024-03-02T08:49:06;96451.84;;;10.05;87.14
75013;BME280;63567;49.956;20.130;2024-03-02T08:51:32;96454.09;;;10.08;87.55
75013;BME280;63567;49.956;20.130;2024-03-02T08:53:57;96456.94;;;10.14;87.23
75013;BME280;63567;49.956;20.130;2024-03-02T08:56:23;96458.94;;;10.18;87.26
75013;BME280;63567;49.956;20.130;2024-03-02T08:58:49;96465.63;;;10.21;87.28
75013;BME280;63567;49.956;20.130;2024-03-02T09:01:15;96465.25;;;10.24;87.38
75013;BME280;63567;49.956;20.130;2024-03-02T09:03:41;96461.22;;;10.28;87.31
75013;BME280;63567;49.956;20.130;2024-03-02T09:06:09;96467.13;;;10.30;87.35
75013;BME280;63567;49.956;20.130;2024-03-02T09:08:35;96467.50;;;10.34;87.10
75013;BME280;63567;49.956;20.130;2024-03-02T09:11:02;96455.16;;;10.34;87.36
75013;BME280;63567;49.956;20.130;2024-03-02T09:13:27;96466.72;;;10.40;87.19
75013;BME280;63567;49.956;20.130;2024-03-02T09:15:53;96474.19;;;10.43;87.58
75013;BME280;63567;49.956;20.130;2024-03-02T09:18:18;96471.38;;;10.44;87.35
75013;BME280;63567;49.956;20.130;2024-03-02T09:20:43;96484.16;;;10.47;87.13
75013;BME280;63567;49.956;20.130;2024-03-02T09:23:08;96477.66;;;10.50;87.16
75013;BME280;63567;49.956;20.130;2024-03-02T09:25:34;96476.44;;;10.53;86.95
75013;BME280;63567;49.956;20.130;2024-03-02T09:27:59;96485.75;;;10.55;86.91
75013;BME280;63567;49.956;20.130;2024-03-02T09:30:24;96485.56;;;10.57;86.73
75013;BME280;63567;49.956;20.130;2024-03-02T09:32:49;96486.38;;;10.57;86.63
75013;BME280;63567;49.956;20.130;2024-03-02T09:35:15;96499.34;;;10.59;86.72
75013;BME280;63567;49.956;20.130;2024-03-02T09:37:40;96501.75;;;10.60;86.31
75013;BME280;63567;49.956;20.130;2024-03-02T09:40:05;96500.97;;;10.60;86.30
75013;BME280;63567;49.956;20.130;2024-03-02T09:42:31;96511.50;;;10.60;86.37
75013;BME280;63567;49.956;20.130;2024-03-02T09:44:57;96507.63;;;10.56;86.45
75013;BME280;63567;49.956;20.130;2024-03-02T09:47:23;96511.50;;;10.60;86.13
75013;BME280;63567;49.956;20.130;2024-03-02T09:49:48;96513.31;;;10.59;86.06
75013;BME280;63567;49.956;20.130;2024-03-02T09:52:14;96518.41;;;10.61;86.24
75013;BME280;63567;49.956;20.130;2024-03-02T09:54:39;96513.75;;;10.63;86.38
75013;BME280;63567;49.956;20.130;2024-03-02T09:57:05;96509.28;;;10.63;86.46
75013;BME280;63567;49.956;20.130;2024-03-02T09:59:30;96515.34;;;10.64;86.28
75013;BME280;63567;49.956;20.130;2024-03-02T10:01:59;96501.19;;;10.65;86.46
75013;BME280;63567;49.956;20.130;2024-03-02T10:04:26;96500.78;;;10.68;86.53
75013;BME280;63567;49.956;20.130;2024-03-02T10:06:51;96500.56;;;10.63;86.84
75013;BME280;63567;49.956;20.130;2024-03-02T10:09:29;96502.00;;;10.72;86.63
75013;BME280;63567;49.956;20.130;2024-03-02T10:12:03;96498.31;;;10.73;86.83
75013;BME280;63567;49.956;20.130;2024-03-02T10:14:29;96496.91;;;10.77;87.09
75013;BME280;63567;49.956;20.130;2024-03-02T10:17:02;96489.84;;;10.84;87.37
75013;BME280;63567;49.956;20.130;2024-03-02T10:19:27;96486.78;;;10.87;87.56
75013;BME280;63567;49.956;20.130;2024-03-02T10:21:57;96497.94;;;10.96;87.69
75013;BME280;63567;49.956;20.130;2024-03-02T10:24:23;96497.94;;;11.03;88.27
75013;BME280;63567;49.956;20.130;2024-03-02T10:26:50;96491.84;;;11.09;87.91
75013;BME280;63567;49.956;20.130;2024-03-02T10:29:15;96486.56;;;11.16;88.53
75013;BME280;63567;49.956;20.130;2024-03-02T10:31:43;96484.72;;;11.23;88.42
75013;BME280;63567;49.956;20.130;2024-03-02T10:34:10;96490.19;;;11.28;88.66
75013;BME280;63567;49.956;20.130;2024-03-02T10:36:36;96483.69;;;11.37;88.58
75013;BME280;63567;49.956;20.130;2024-03-02T10:39:06;96484.69;;;11.43;88.48
75013;BME280;63567;49.956;20.130;2024-03-02T10:41:36;96485.28;;;11.51;87.93
75013;BME280;63567;49.956;20.130;2024-03-02T10:44:06;96484.41;;;11.58;88.23
75013;BME280;63567;49.956;20.130;2024-03-02T10:46:34;96495.34;;;11.68;88.03
75013;BME280;63567;49.956;20.130;2024-03-02T10:49:00;96496.53;;;11.79;88.26
75013;BME280;63567;49.956;20.130;2024-03-02T10:51:28;96491.81;;;11.87;88.12
75013;BME280;63567;49.956;20.130;2024-03-02T10:53:55;96496.69;;;11.90;88.36
75013;BME280;63567;49.956;20.130;2024-03-02T10:56:28;96496.06;;;12.02;88.78
75013;BME280;63567;49.956;20.130;2024-03-02T10:59:09;96495.19;;;12.15;88.57
75013;BME280;63567;49.956;20.130;2024-03-02T11:01:41;96488.63;;;12.24;88.58
75013;BME280;63567;49.956;20.130;2024-03-02T11:04:08;96496.91;;;12.34;88.65
75013;BME280;63567;49.956;20.130;2024-03-02T11:06:35;96484.88;;;12.38;88.14
75013;BME280;63567;49.956;20.130;2024-03-02T11:09:05;96491.59;;;12.41;87.74
75013;BME280;63567;49.956;20.130;2024-03-02T11:11:36;96495.00;;;12.48;87.67
75013;BME280;63567;49.956;20.130;2024-03-02T11:14:04;96492.91;;;12.57;87.17
75013;BME280;63567;49.956;20.130;2024-03-02T11:16:37;96489.81;;;12.60;86.92
75013;BME280;63567;49.956;20.130;2024-03-02T11:19:13;96477.59;;;12.65;86.56
75013;BME280;63567;49.956;20.130;2024-03-02T11:21:40;96476.94;;;12.70;86.37
75013;BME280;63567;49.956;20.130;2024-03-02T11:26:47;96477.28;;;12.80;86.47
75013;BME280;63567;49.956;20.130;2024-03-02T11:32:12;96464.16;;;12.92;86.42
75013;BME280;63567;49.956;20.130;2024-03-02T11:34:41;96464.09;;;12.99;87.15
75013;BME280;63567;49.956;20.130;2024-03-02T11:37:10;96464.84;;;13.06;86.60
75013;BME280;63567;49.956;20.130;2024-03-02T11:39:36;96462.94;;;13.13;86.20
75013;BME280;63567;49.956;20.130;2024-03-02T11:42:01;96470.00;;;13.19;86.27
75013;BME280;63567;49.956;20.130;2024-03-02T11:44:28;96475.03;;;13.27;86.34
75013;BME280;63567;49.956;20.130;2024-03-02T11:47:05;96471.28;;;13.35;86.11
75013;BME280;63567;49.956;20.130;2024-03-02T11:49:40;96464.69;;;13.44;85.66
75013;BME280;63567;49.956;20.130;2024-03-02T11:52:07;96459.09;;;13.52;86.01
75013;BME280;63567;49.956;20.130;2024-03-02T11:54:34;96474.03;;;13.65;85.98
75013;BME280;63567;49.956;20.130;2024-03-02T11:57:02;96470.03;;;13.74;86.02
75013;BME280;63567;49.956;20.130;2024-03-02T11:59:29;96466.88;;;13.84;85.70
75013;BME280;63567;49.956;20.130;2024-03-02T12:01:54;96484.66;;;13.95;85.35
75013;BME280;63567;49.956;20.130;2024-03-02T12:04:21;96474.34;;;14.06;85.06
75013;BME280;63567;49.956;20.130;2024-03-02T12:06:48;96478.06;;;14.16;84.99
75013;BME280;63567;49.956;20.130;2024-03-02T12:09:20;96478.09;;;14.28;84.67
75013;BME280;63567;49.956;20.130;2024-03-02T12:11:45;96477.31;;;14.39;84.41
75013;BME280;63567;49.956;20.130;2024-03-02T12:14:11;96476.78;;;14.49;83.80
75013;BME280;63567;49.956;20.130;2024-03-02T12:16:38;96477.09;;;14.60;83.77
75013;BME280;63567;49.956;20.130;2024-03-02T12:19:04;96479.38;;;14.68;82.89
75013;BME280;63567;49.956;20.130;2024-03-02T12:21:30;96477.22;;;14.76;82.94
75013;BME280;63567;49.956;20.130;2024-03-02T12:23:55;96467.06;;;14.85;82.74
75013;BME280;63567;49.956;20.130;2024-03-02T12:26:21;96472.41;;;14.97;82.89
75013;BME280;63567;49.956;20.130;2024-03-02T12:28:47;96478.75;;;15.08;82.47
75013;BME280;63567;49.956;20.130;2024-03-02T12:31:13;96474.00;;;15.22;82.27
75013;BME280;63567;49.956;20.130;2024-03-02T12:33:40;96470.31;;;15.34;82.81
75013;BME280;63567;49.956;20.130;2024-03-02T12:36:09;96473.88;;;15.52;83.46
75013;BME280;63567;49.956;20.130;2024-03-02T12:38:34;96468.31;;;15.65;83.15
75013;BME280;63567;49.956;20.130;2024-03-02T12:41:00;96468.06;;;15.78;82.45
75013;BME280;63567;49.956;20.130;2024-03-02T12:43:30;96468.84;;;15.91;81.67
75013;BME280;63567;49.956;20.130;2024-03-02T12:45:55;96463.47;;;16.02;81.10
75013;BME280;63567;49.956;20.130;2024-03-02T12:48:21;96464.03;;;16.16;80.80
75013;BME280;63567;49.956;20.130;2024-03-02T12:50:47;96460.28;;;16.29;80.36
75013;BME280;63567;49.956;20.130;2024-03-02T12:53:15;96464.22;;;16.43;80.43
75013;BME280;63567;49.956;20.130;2024-03-02T12:55:41;96458.13;;;16.60;79.91
75013;BME280;63567;49.956;20.130;2024-03-02T12:58:07;96451.75;;;16.78;79.87